Poth, Texas
Current Conditions -  °F | °C
As of 2:15 PM on Monday 26 Jan 2015 (Local Time) from KPEZ Reporting Station
Clear Clear  
Wind Chill: 72°   Ceiling: Unl
Heat Index: 72°   Visibility: 10mi
Dew Point: 33°   Wind: 7mph
Humidity: 24%   Direction: 260°W
Pressure: 30.21"   Gusts: NA
Location:  29.07°N, 98.08°W
Report Text: KPEZ 262015Z AUTO 26006KT 10SM CLR 22/01 A3021 RMK AO2 T02210005
Loading
Personal Weather Stations






























Interactive Weather Map New forecast layout! Learn more

10-Day Weather Forecast

Advertisements
Track Severe Weather on mobile